Time;durP1;ratioP1;P1;durP2;ratioP2;P2;SDS_P1;SDS_P2;PMS_P1;PMS_P2;Temp;Humidity;BMP_temperature;BMP_pressure;BME280_temperature;BME280_humidity;BME280_pressure;Samples;Min_cycle;Max_cycle;Signal;HPM_P1;HPM_P2
2023/05/18 00:00:22;;;;;;;8.70;1.65;;;7.30;99.90;;;;;;5116499;28;20043;-72
2023/05/18 00:02:48;;;;;;;5.10;1.80;;;7.30;99.90;;;;;;5116132;28;20043;-72
2023/05/18 00:05:16;;;;;;;7.57;1.83;;;7.40;99.90;;;;;;5115627;28;20502;-72
2023/05/18 00:07:42;;;;;;;5.15;1.80;;;7.50;99.90;;;;;;5115961;28;20062;-73
2023/05/18 00:10:09;;;;;;;5.80;1.50;;;7.60;99.90;;;;;;5115857;28;20459;-71
2023/05/18 00:12:35;;;;;;;4.63;1.60;;;7.20;99.90;;;;;;5116329;28;20036;-71
2023/05/18 00:15:00;;;;;;;3.15;1.48;;;7.60;99.90;;;;;;5115853;28;20528;-73
2023/05/18 00:17:26;;;;;;;5.10;1.70;;;7.10;99.90;;;;;;5115229;28;20371;-72
2023/05/18 00:19:52;;;;;;;5.68;1.58;;;7.00;99.90;;;;;;5115037;28;20040;-71
2023/05/18 00:22:19;;;;;;;4.75;1.73;;;7.00;99.90;;;;;;5115676;28;20037;-72
2023/05/18 00:24:45;;;;;;;;;;;7.00;99.90;;;;;;5116015;28;20043;-72
2023/05/18 00:27:11;;;;;;;6.82;1.70;;;7.00;99.90;;;;;;5115523;28;20366;-72
2023/05/18 00:29:37;;;;;;;4.28;1.90;;;6.90;99.90;;;;;;5116022;28;20092;-71
2023/05/18 00:32:02;;;;;;;4.97;1.70;;;7.30;99.90;;;;;;5115322;28;20035;-72
2023/05/18 00:34:31;;;;;;;5.85;1.65;;;6.80;99.90;;;;;;5115579;28;20050;-72
2023/05/18 00:36:57;;;;;;;6.88;2.03;;;6.80;99.90;;;;;;5115263;28;20164;-70
2023/05/18 00:39:22;;;;;;;8.10;2.05;;;6.80;99.90;;;;;;5114037;28;20071;-72
2023/05/18 00:41:48;;;;;;;4.55;1.58;;;6.70;99.90;;;;;;5115277;28;20028;-72
2023/05/18 00:44:14;;;;;;;6.07;1.88;;;7.30;99.90;;;;;;5115220;28;20032;-71
2023/05/18 00:46:40;;;;;;;7.75;2.75;;;6.60;99.90;;;;;;5115257;28;20080;-72
2023/05/18 00:49:06;;;;;;;4.15;1.67;;;6.60;99.90;;;;;;5115183;28;20035;-72
2023/05/18 00:51:33;;;;;;;6.53;2.00;;;7.30;99.90;;;;;;5115216;28;20054;-71
2023/05/18 00:54:00;;;;;;;5.82;1.70;;;6.50;99.90;;;;;;5114997;28;20378;-71
2023/05/18 00:56:27;;;;;;;8.40;1.92;;;6.50;99.90;;;;;;5114951;28;20043;-72
2023/05/18 00:58:56;;;;;;;4.13;1.67;;;6.40;99.90;;;;;;5113988;28;20047;-72
2023/05/18 01:01:30;;;;;;;7.32;2.45;;;6.40;99.90;;;;;;5114860;28;20039;-71
2023/05/18 01:04:01;;;;;;;6.13;2.03;;;6.30;99.90;;;;;;5114849;28;20491;-72
2023/05/18 01:06:36;;;;;;;6.25;1.80;;;6.30;99.90;;;;;;5114922;28;20051;-71
2023/05/18 01:09:05;;;;;;;4.70;1.63;;;6.20;99.90;;;;;;5115199;28;20076;-72
2023/05/18 01:11:56;;;;;;;5.60;1.63;;;6.10;99.90;;;;;;5115255;28;20523;-71
2023/05/18 01:14:33;;;;;;;4.78;1.65;;;6.10;99.90;;;;;;5114881;28;20053;-72
2023/05/18 01:17:24;;;;;;;7.55;2.25;;;6.00;99.90;;;;;;5114623;28;20092;-72
2023/05/18 01:20:11;;;;;;;4.00;1.88;;;6.00;99.90;;;;;;5114587;27;20047;-72
2023/05/18 01:22:55;;;;;;;4.70;1.70;;;5.90;99.90;;;;;;5114583;28;20039;-71
2023/05/18 01:25:30;;;;;;;5.40;1.70;;;6.60;99.90;;;;;;5114203;28;20481;-72
2023/05/18 01:28:05;;;;;;;9.32;2.13;;;5.90;99.90;;;;;;5114530;28;20043;-71
2023/05/18 01:30:35;;;;;;;4.60;1.80;;;5.80;99.90;;;;;;5114118;28;20050;-71
2023/05/18 01:33:07;;;;;;;6.75;2.97;;;5.80;99.90;;;;;;5114407;28;20047;-71
2023/05/18 01:35:32;;;;;;;6.35;2.05;;;5.70;99.90;;;;;;5114496;28;20032;-70
2023/05/18 01:37:58;;;;;;;8.07;2.08;;;5.70;99.90;;;;;;5114157;28;20034;-71
2023/05/18 01:40:26;;;;;;;4.80;1.88;;;5.70;99.90;;;;;;5115119;28;20032;-72
2023/05/18 01:43:00;;;;;;;5.13;1.83;;;5.60;99.90;;;;;;5114515;28;20059;-71
2023/05/18 01:45:29;;;;;;;4.07;1.80;;;5.60;99.90;;;;;;5114086;28;20119;-72
2023/05/18 01:47:58;;;;;;;4.63;1.90;;;5.50;99.90;;;;;;5113944;28;20494;-71
2023/05/18 01:50:36;;;;;;;3.95;2.00;;;5.50;99.90;;;;;;5114055;28;20075;-72
2023/05/18 01:53:02;;;;;;;;;;;5.50;99.90;;;;;;5096872;28;20079;-71
2023/05/18 01:55:29;;;;;;;5.05;1.90;;;5.40;99.90;;;;;;5114070;28;19986;-72
2023/05/18 01:57:57;;;;;;;6.35;2.25;;;5.50;99.90;;;;;;5114105;28;20428;-71
2023/05/18 02:00:23;;;;;;;8.15;2.67;;;5.30;99.90;;;;;;5113913;28;20478;-72
2023/05/18 02:02:48;;;;;;;5.47;2.20;;;5.40;99.90;;;;;;5113065;28;20035;-72
2023/05/18 02:05:14;;;;;;;5.85;1.83;;;5.20;99.90;;;;;;5113881;28;20054;-73
2023/05/18 02:07:42;;;;;;;10.60;2.35;;;5.60;99.90;;;;;;5113762;28;20100;-72
2023/05/18 02:10:09;;;;;;;4.38;2.20;;;5.20;99.90;;;;;;5113969;28;20477;-72
2023/05/18 02:12:35;;;;;;;8.32;2.30;;;5.20;99.90;;;;;;5114191;28;20044;-71
2023/05/18 02:15:04;;;;;;;4.78;2.05;;;5.10;99.90;;;;;;5113905;28;20039;-72
2023/05/18 02:17:31;;;;;;;5.32;2.10;;;5.10;99.90;;;;;;5113774;28;20439;-72
2023/05/18 02:19:57;;;;;;;6.75;2.20;;;5.00;99.90;;;;;;5113640;28;20036;-71
2023/05/18 02:22:22;;;;;;;3.80;1.88;;;5.00;99.90;;;;;;5113815;28;20044;-71
2023/05/18 02:24:48;;;;;;;6.68;2.15;;;5.00;99.90;;;;;;5113775;28;20044;-71
2023/05/18 02:27:14;;;;;;;6.15;2.00;;;5.00;99.90;;;;;;5113989;28;20043;-71
2023/05/18 02:29:40;;;;;;;4.55;2.22;;;4.90;99.90;;;;;;5113795;28;20361;-71
2023/05/18 02:32:06;;;;;;;9.23;2.03;;;4.90;99.90;;;;;;5113697;28;20032;-71
2023/05/18 02:34:32;;;;;;;5.50;3.03;;;4.90;99.90;;;;;;5114372;28;20043;-71
2023/05/18 02:37:02;;;;;;;4.13;2.13;;;4.90;99.90;;;;;;5113639;28;20081;-71
2023/05/18 02:39:28;;;;;;;5.70;2.67;;;4.80;99.90;;;;;;5113707;28;20050;-72
2023/05/18 02:41:54;;;;;;;6.00;2.83;;;4.80;99.90;;;;;;5115144;28;20036;-71
2023/05/18 02:44:20;;;;;;;4.38;2.90;;;4.70;99.90;;;;;;5117597;28;20038;-72
2023/05/18 02:46:46;;;;;;;6.82;2.40;;;4.70;99.90;;;;;;5117420;28;20478;-71
2023/05/18 02:49:11;;;;;;;6.90;2.47;;;4.70;99.90;;;;;;5117501;28;20032;-71
2023/05/18 02:51:37;;;;;;;5.93;2.30;;;4.70;99.90;;;;;;5117829;28;20043;-72
2023/05/18 02:54:03;;;;;;;5.63;2.67;;;4.60;99.90;;;;;;5117410;28;20046;-72
2023/05/18 02:56:28;;;;;;;8.57;2.45;;;4.60;99.90;;;;;;5117239;28;20036;-71
2023/05/18 02:58:57;;;;;;;7.25;2.30;;;4.60;99.90;;;;;;5117291;28;20047;-70
2023/05/18 03:01:26;;;;;;;7.38;2.33;;;4.50;99.90;;;;;;5117121;28;20080;-71
2023/05/18 03:03:53;;;;;;;4.80;2.30;;;4.60;99.90;;;;;;5116919;28;20493;-71
2023/05/18 03:06:22;;;;;;;4.93;2.15;;;4.50;99.90;;;;;;5117147;28;20095;-72
2023/05/18 03:08:49;;;;;;;5.10;2.10;;;4.40;99.90;;;;;;5117146;28;20383;-71
2023/05/18 03:11:15;;;;;;;7.20;2.13;;;4.40;99.90;;;;;;5117104;28;20031;-71
2023/05/18 03:13:41;;;;;;;4.47;2.08;;;4.40;99.90;;;;;;5117032;28;20490;-71
2023/05/18 03:16:06;;;;;;;5.05;2.83;;;4.40;99.90;;;;;;5116944;28;20089;-71
2023/05/18 03:18:32;;;;;;;5.50;2.03;;;4.40;99.90;;;;;;5116618;28;20475;-70
2023/05/18 03:21:00;;;;;;;4.13;2.95;;;4.30;99.90;;;;;;5116914;28;20036;-72
2023/05/18 03:23:26;;;;;;;6.55;2.40;;;4.30;99.90;;;;;;5116875;28;20040;-72
2023/05/18 03:25:54;;;;;;;3.10;1.92;;;4.30;99.90;;;;;;5116788;28;20113;-71
2023/05/18 03:28:20;;;;;;;5.22;2.35;;;4.30;99.90;;;;;;5115744;28;20069;-72
2023/05/18 03:30:45;;;;;;;8.00;2.60;;;4.30;99.90;;;;;;5116588;27;20043;-72
2023/05/18 03:33:11;;;;;;;6.30;2.08;;;4.20;99.90;;;;;;5116573;28;20428;-70
2023/05/18 03:35:39;;;;;;;8.45;2.58;;;4.30;99.90;;;;;;5116339;28;20123;-71
2023/05/18 03:38:05;;;;;;;3.60;1.98;;;4.20;99.90;;;;;;5116436;28;20047;-71
2023/05/18 03:40:31;;;;;;;5.03;1.92;;;4.20;99.90;;;;;;5116398;28;20471;-72
2023/05/18 03:42:56;;;;;;;3.17;2.20;;;4.40;99.90;;;;;;5116333;28;20035;-70
2023/05/18 03:45:22;;;;;;;8.30;3.40;;;4.20;99.90;;;;;;5116386;28;20043;-71
2023/05/18 03:47:48;;;;;;;4.68;2.40;;;4.20;99.90;;;;;;5116349;28;20406;-72
2023/05/18 03:50:13;;;;;;;7.20;2.50;;;4.20;99.90;;;;;;5116618;28;20035;-71
2023/05/18 03:52:40;;;;;;;7.28;2.50;;;4.20;99.90;;;;;;5116055;28;20039;-71
2023/05/18 03:55:06;;;;;;;4.32;2.58;;;4.90;99.90;;;;;;5115954;28;20431;-72
2023/05/18 03:57:32;;;;;;;6.10;2.60;;;4.30;99.90;;;;;;5116118;28;20039;-71
2023/05/18 03:59:58;;;;;;;6.75;1.98;;;4.30;99.90;;;;;;5116180;28;20039;-70
2023/05/18 04:02:24;;;;;;;5.35;2.70;;;4.30;99.90;;;;;;5116086;28;20126;-72
2023/05/18 04:04:52;;;;;;;5.55;2.25;;;4.40;99.90;;;;;;5116023;28;20406;-71
2023/05/18 04:07:21;;;;;;;5.43;2.28;;;4.40;99.90;;;;;;5116264;28;20399;-72
2023/05/18 04:09:47;;;;;;;8.40;2.30;;;4.50;99.90;;;;;;5115974;28;20387;-71
2023/05/18 04:12:13;;;;;;;5.78;2.20;;;4.50;99.90;;;;;;5115894;28;20036;-71
2023/05/18 04:14:41;;;;;;;4.93;2.58;;;4.90;99.90;;;;;;5114524;28;20046;-72
2023/05/18 04:17:07;;;;;;;5.50;2.28;;;4.60;99.90;;;;;;5115748;28;20085;-70
2023/05/18 04:19:36;;;;;;;4.40;2.40;;;4.60;99.90;;;;;;5115781;28;20035;-72
2023/05/18 04:22:06;;;;;;;16.92;2.80;;;4.60;99.90;;;;;;5115663;28;20040;-70
2023/05/18 04:24:33;;;;;;;5.72;2.17;;;4.70;99.90;;;;;;5114912;28;20043;-71
2023/05/18 04:26:59;;;;;;;3.22;2.20;;;4.70;99.90;;;;;;5115579;28;20531;-72
2023/05/18 04:29:26;;;;;;;4.40;2.00;;;4.80;99.90;;;;;;5115543;28;20036;-71
2023/05/18 04:31:52;;;;;;;;;;;4.80;99.90;;;;;;5116369;28;20058;-71
2023/05/18 04:34:18;;;;;;;5.22;2.30;;;4.80;99.90;;;;;;5115569;28;20347;-71
2023/05/18 04:36:45;;;;;;;11.18;2.22;;;4.90;99.90;;;;;;5115379;28;20034;-71
2023/05/18 04:39:11;;;;;;;5.93;2.20;;;5.70;99.90;;;;;;5115327;28;20409;-72
2023/05/18 04:41:37;;;;;;;6.82;2.50;;;5.00;99.90;;;;;;5114966;28;20467;-71
2023/05/18 04:44:03;;;;;;;8.63;2.33;;;5.10;99.90;;;;;;5115255;28;20118;-70
2023/05/18 04:46:29;;;;;;;3.58;2.00;;;5.10;99.90;;;;;;5115265;28;20096;-71
2023/05/18 04:48:56;;;;;;;3.72;2.00;;;5.20;99.90;;;;;;5115544;28;20043;-71
2023/05/18 04:51:23;;;;;;;4.85;2.40;;;5.20;99.90;;;;;;5115082;28;20036;-72
2023/05/18 04:53:52;;;;;;;5.30;2.05;;;5.30;99.90;;;;;;5115119;28;20043;-71
2023/05/18 04:56:19;;;;;;;5.47;1.98;;;5.40;99.90;;;;;;5114878;28;20027;-71
2023/05/18 04:58:47;;;;;;;3.10;2.15;;;5.40;99.90;;;;;;5114988;28;20044;-71
2023/05/18 05:01:14;;;;;;;6.80;2.30;;;5.50;99.90;;;;;;5114941;28;20482;-71
2023/05/18 05:03:40;;;;;;;4.47;2.05;;;5.50;99.90;;;;;;5114619;28;20036;-71
2023/05/18 05:06:06;;;;;;;4.68;2.20;;;5.60;99.90;;;;;;5114363;28;20047;-71
2023/05/18 05:08:32;;;;;;;4.88;2.20;;;5.60;99.90;;;;;;5114820;28;20047;-72
2023/05/18 05:10:57;;;;;;;4.90;2.47;;;5.70;99.90;;;;;;5114716;28;20410;-71
2023/05/18 05:13:23;;;;;;;6.57;2.78;;;5.70;99.90;;;;;;5114687;28;20100;-71
2023/05/18 05:15:48;;;;;;;5.82;2.30;;;5.80;99.90;;;;;;5114710;28;20035;-71
2023/05/18 05:18:14;;;;;;;5.25;2.30;;;5.80;99.90;;;;;;5114629;28;20035;-71
2023/05/18 05:20:40;;;;;;;5.18;2.17;;;5.90;99.90;;;;;;5114642;28;20474;-72
2023/05/18 05:23:05;;;;;;;4.70;2.20;;;5.90;99.90;;;;;;5114490;28;20081;-72
2023/05/18 05:25:31;;;;;;;5.88;2.50;;;6.10;99.90;;;;;;5114508;28;20054;-71
2023/05/18 05:27:56;;;;;;;4.25;2.20;;;6.10;99.90;;;;;;5114189;28;20116;-71
2023/05/18 05:30:22;;;;;;;4.03;2.17;;;6.30;99.90;;;;;;5114424;28;20059;-71
2023/05/18 05:32:47;;;;;;;4.20;2.50;;;6.30;99.90;;;;;;5114345;28;20463;-72
2023/05/18 05:35:13;;;;;;;4.75;2.63;;;6.40;99.90;;;;;;5114381;28;20122;-70
2023/05/18 05:37:39;;;;;;;3.75;2.05;;;6.50;99.90;;;;;;5112996;28;20061;-71
2023/05/18 05:40:05;;;;;;;5.57;2.30;;;6.60;99.90;;;;;;5114433;28;20153;-73
2023/05/18 05:42:31;;;;;;;5.30;2.70;;;6.70;99.90;;;;;;5113841;28;20044;-71
2023/05/18 05:44:56;;;;;;;6.03;2.53;;;6.80;99.90;;;;;;5114192;28;20288;-71
2023/05/18 05:47:22;;;;;;;3.95;2.50;;;7.00;99.90;;;;;;5114173;28;20032;-71
2023/05/18 05:49:48;;;;;;;5.43;2.30;;;7.10;99.90;;;;;;5114300;28;20129;-70
2023/05/18 05:52:13;;;;;;;8.18;2.38;;;7.30;99.90;;;;;;5114300;28;20034;-72
2023/05/18 05:54:40;;;;;;;5.00;2.47;;;7.40;99.90;;;;;;5114148;28;20106;-72
2023/05/18 05:57:05;;;;;;;5.22;2.15;;;7.80;99.90;;;;;;5113964;28;20119;-71
2023/05/18 05:59:31;;;;;;;5.53;1.92;;;7.70;99.90;;;;;;5114416;28;20122;-72
2023/05/18 06:01:57;;;;;;;3.83;1.80;;;7.80;99.90;;;;;;5114358;28;20035;-72
2023/05/18 06:04:23;;;;;;;3.50;1.90;;;8.00;99.90;;;;;;5113929;28;20048;-72
2023/05/18 06:06:48;;;;;;;10.30;1.88;;;8.20;99.90;;;;;;5114015;28;20114;-71
2023/05/18 06:09:14;;;;;;;6.80;2.25;;;8.20;99.90;;;;;;5113975;28;20378;-71
2023/05/18 06:11:40;;;;;;;10.53;1.83;;;8.30;99.90;;;;;;5112986;28;20044;-71
2023/05/18 06:14:06;;;;;;;5.25;1.45;;;8.40;99.90;;;;;;5113897;28;20315;-72
2023/05/18 06:16:32;;;;;;;4.10;1.30;;;8.40;99.90;;;;;;5116912;28;20031;-72
2023/05/18 06:18:57;;;;;;;6.88;1.80;;;8.50;99.90;;;;;;5117955;28;20043;-71
2023/05/18 06:21:23;;;;;;;5.75;1.73;;;8.50;99.90;;;;;;5118048;28;20048;-73
2023/05/18 06:23:49;;;;;;;3.30;1.40;;;8.60;99.90;;;;;;5118070;28;20497;-72
2023/05/18 06:26:14;;;;;;;3.75;1.60;;;8.60;99.90;;;;;;5117946;28;20075;-72
2023/05/18 06:28:40;;;;;;;4.60;1.73;;;8.70;99.90;;;;;;5117191;28;20035;-71
2023/05/18 06:31:06;;;;;;;2.85;1.77;;;9.10;99.90;;;;;;5118383;28;20100;-71
2023/05/18 06:33:31;;;;;;;3.53;1.80;;;8.80;99.90;;;;;;5117832;28;20535;-70
2023/05/18 06:35:57;;;;;;;6.10;1.80;;;8.80;99.90;;;;;;5117916;28;20040;-71
2023/05/18 06:38:22;;;;;;;5.22;1.88;;;8.90;99.90;;;;;;5117732;28;20122;-71
2023/05/18 06:40:48;;;;;;;2.88;1.77;;;9.00;99.90;;;;;;5117811;28;20042;-71
2023/05/18 06:43:14;;;;;;;5.53;1.93;;;9.10;99.90;;;;;;5117855;28;20039;-71
2023/05/18 06:45:40;;;;;;;4.90;2.17;;;9.10;99.90;;;;;;5118233;28;20559;-72
2023/05/18 06:48:05;;;;;;;3.08;1.35;;;9.00;99.90;;;;;;5117612;28;20509;-72
2023/05/18 06:50:31;;;;;;;3.75;1.55;;;9.00;99.90;;;;;;5117223;28;20036;-70
2023/05/18 06:52:57;;;;;;;6.18;2.33;;;9.10;99.90;;;;;;5117387;28;20044;-71
2023/05/18 06:55:22;;;;;;;7.10;2.60;;;9.20;99.90;;;;;;5117405;28;20554;-71
2023/05/18 06:57:48;;;;;;;9.27;1.60;;;9.30;99.90;;;;;;5117128;28;20039;-71
2023/05/18 07:00:14;;;;;;;6.20;1.70;;;9.50;99.90;;;;;;5117369;28;20036;-71
2023/05/18 07:02:42;;;;;;;3.13;1.50;;;9.60;99.90;;;;;;5117551;28;20123;-70
2023/05/18 07:05:08;;;;;;;8.00;1.50;;;9.70;99.90;;;;;;5117218;28;20051;-70
2023/05/18 07:07:35;;;;;;;8.30;1.38;;;9.80;99.90;;;;;;5117212;28;20130;-71
2023/05/18 07:10:02;;;;;;;2.92;1.40;;;9.80;99.90;;;;;;5116862;28;20490;-70
2023/05/18 07:12:28;;;;;;;4.13;1.63;;;9.80;99.90;;;;;;5117074;28;20051;-72
2023/05/18 07:14:53;;;;;;;3.92;1.52;;;10.50;99.90;;;;;;5117006;28;20407;-71
2023/05/18 07:17:19;;;;;;;6.35;1.50;;;9.90;99.90;;;;;;5116944;28;20036;-72
2023/05/18 07:19:44;;;;;;;6.68;2.28;;;10.00;99.90;;;;;;5117039;28;20463;-70
2023/05/18 07:22:10;;;;;;;5.90;1.55;;;10.10;99.90;;;;;;5116919;28;20040;-72
2023/05/18 07:24:36;;;;;;;5.53;1.50;;;10.10;99.90;;;;;;5116849;28;20049;-72
2023/05/18 07:27:01;;;;;;;4.07;1.70;;;10.10;99.90;;;;;;5114856;28;20035;-70
2023/05/18 07:29:28;;;;;;;6.43;2.10;;;10.10;99.90;;;;;;5116743;28;20459;-71
2023/05/18 07:31:53;;;;;;;4.55;1.52;;;10.10;99.90;;;;;;5117061;28;20050;-71
2023/05/18 07:34:19;;;;;;;2.97;1.73;;;10.10;99.90;;;;;;5116667;28;20040;-71
2023/05/18 07:36:45;;;;;;;4.55;1.40;;;;;;;;;;5116586;28;20071;-71
2023/05/18 07:39:17;;;;;;;8.73;1.85;;;10.20;99.90;;;;;;5116585;28;20471;-70
2023/05/18 07:41:44;;;;;;;3.03;1.40;;;10.70;99.90;;;;;;5116455;28;20042;-71
2023/05/18 07:44:10;;;;;;;3.88;1.52;;;10.70;99.90;;;;;;5116514;28;20038;-71
2023/05/18 07:46:36;;;;;;;4.70;1.50;;;10.70;99.90;;;;;;5117122;28;20040;-71
2023/05/18 07:49:01;;;;;;;6.65;2.00;;;10.80;99.90;;;;;;5116308;28;20047;-70
2023/05/18 07:51:28;;;;;;;4.97;1.75;;;11.00;99.90;;;;;;5116190;28;20052;-70
2023/05/18 07:53:54;;;;;;;3.17;1.25;;;11.20;99.90;;;;;;5116314;28;20118;-71
2023/05/18 07:56:21;;;;;;;3.75;1.40;;;11.40;99.90;;;;;;5116059;28;20126;-71
2023/05/18 07:58:46;;;;;;;;;;;11.40;99.90;;;;;;5117407;28;20035;-70
2023/05/18 08:01:12;;;;;;;4.78;1.50;;;11.50;99.90;;;;;;5116079;28;19915;-70
2023/05/18 08:03:37;;;;;;;7.97;1.58;;;11.40;99.90;;;;;;5116075;28;20039;-71
2023/05/18 08:06:03;;;;;;;5.65;1.63;;;11.40;99.90;;;;;;5116081;28;20101;-70
2023/05/18 08:08:29;;;;;;;4.45;1.67;;;11.30;99.90;;;;;;5116090;28;20115;-70
2023/05/18 08:10:55;;;;;;;4.45;1.50;;;11.30;99.90;;;;;;5114795;28;20131;-70
2023/05/18 08:13:21;;;;;;;12.85;1.50;;;11.40;99.90;;;;;;5115921;28;20039;-71
2023/05/18 08:15:46;;;;;;;4.22;1.30;;;11.40;99.90;;;;;;5115819;28;20047;-70
2023/05/18 08:18:12;;;;;;;5.25;1.77;;;11.60;99.90;;;;;;5115831;28;20042;-71
2023/05/18 08:20:38;;;;;;;2.17;1.20;;;11.70;99.90;;;;;;5115780;28;20043;-71
2023/05/18 08:23:03;;;;;;;2.78;1.38;;;11.60;99.90;;;;;;5115672;28;20399;-70
2023/05/18 08:25:29;;;;;;;3.15;1.30;;;12.00;99.90;;;;;;5115602;28;20039;-71
2023/05/18 08:27:55;;;;;;;4.57;1.48;;;12.10;99.90;;;;;;5115512;28;20047;-71
2023/05/18 08:30:20;;;;;;;7.63;1.90;;;11.80;99.90;;;;;;5115484;28;20040;-71
2023/05/18 08:32:49;;;;;;;4.47;1.45;;;12.00;99.90;;;;;;5115295;28;20130;-71
2023/05/18 08:35:15;;;;;;;6.35;1.70;;;12.20;99.90;;;;;;5115385;28;20048;-73
2023/05/18 08:37:40;;;;;;;5.65;1.45;;;12.40;99.90;;;;;;5115287;28;20035;-71
2023/05/18 08:40:06;;;;;;;4.63;1.55;;;12.60;99.90;;;;;;5114375;28;20086;-71
2023/05/18 08:42:44;;;;;;;7.43;1.50;;;12.80;99.90;;;;;;5115384;28;20118;-72
2023/05/18 08:45:28;;;;;;;7.70;2.03;;;12.90;99.90;;;;;;5115283;28;20533;-72
2023/05/18 08:47:56;;;;;;;5.05;1.50;;;12.90;99.90;;;;;;5115139;28;20080;-72
2023/05/18 08:50:23;;;;;;;4.97;1.63;;;13.10;99.90;;;;;;5115188;27;20126;-70
2023/05/18 08:52:54;;;;;;;4.40;1.55;;;13.10;99.90;;;;;;5115106;28;20114;-71
2023/05/18 08:55:21;;;;;;;4.75;1.65;;;13.10;99.90;;;;;;5115063;28;20047;-72
2023/05/18 08:57:54;;;;;;;3.42;1.48;;;13.20;99.90;;;;;;5113853;28;20043;-71
2023/05/18 09:00:21;;;;;;;3.80;1.50;;;13.30;99.90;;;;;;5115213;27;20118;-72
2023/05/18 09:02:48;;;;;;;6.15;1.38;;;13.50;99.90;;;;;;5114990;28;20039;-72
2023/05/18 09:05:14;;;;;;;;;;;13.70;99.90;;;;;;5115113;28;20051;-71
2023/05/18 09:07:41;;;;;;;4.72;1.40;;;13.80;99.90;;;;;;5114812;28;19916;-72
2023/05/18 09:10:09;;;;;;;2.53;1.20;;;13.70;99.90;;;;;;5114780;28;20036;-72
2023/05/18 09:12:35;;;;;;;6.00;1.55;;;13.60;99.90;;;;;;5114684;28;20065;-72
2023/05/18 09:15:02;;;;;;;6.43;2.07;;;13.50;99.90;;;;;;5114939;28;20083;-72
2023/05/18 09:17:28;;;;;;;4.93;1.52;;;13.50;99.90;;;;;;5114645;28;20351;-72
2023/05/18 09:19:53;;;;;;;3.20;1.70;;;13.20;99.90;;;;;;5114848;28;20043;-72
2023/05/18 09:22:19;;;;;;;4.65;1.70;;;13.10;99.90;;;;;;5114994;28;20241;-72
2023/05/18 09:24:45;;;;;;;5.68;1.40;;;13.20;99.90;;;;;;5114511;28;20543;-72
2023/05/18 09:27:10;;;;;;;4.22;1.30;;;13.10;99.90;;;;;;5114804;28;20035;-71
2023/05/18 09:29:51;;;;;;;3.40;1.70;;;13.30;99.90;;;;;;5114293;28;20356;-71
2023/05/18 09:32:16;;;;;;;8.80;1.50;;;13.60;99.90;;;;;;5114069;28;20121;-73
2023/05/18 09:34:44;;;;;;;3.63;1.38;;;13.70;99.90;;;;;;5113159;28;20463;-72
2023/05/18 09:37:09;;;;;;;5.55;1.60;;;13.70;99.80;;;;;;5114068;28;20039;-70
2023/05/18 09:39:35;;;;;;;3.80;1.30;;;13.80;99.90;;;;;;5114282;28;20053;-72
2023/05/18 09:42:04;;;;;;;3.10;1.65;;;13.90;99.90;;;;;;5114331;28;20027;-71
2023/05/18 09:44:41;;;;;;;4.82;1.30;;;13.90;99.90;;;;;;5114105;28;20045;-72
2023/05/18 09:47:10;;;;;;;5.32;1.70;;;13.80;99.90;;;;;;5114115;28;20043;-72
2023/05/18 09:49:36;;;;;;;6.75;1.50;;;13.90;99.90;;;;;;5113330;28;20039;-72
2023/05/18 09:52:06;;;;;;;4.50;1.50;;;14.10;99.90;;;;;;5113595;28;20084;-71
2023/05/18 09:54:34;;;;;;;6.03;1.75;;;14.20;99.90;;;;;;5113756;28;20479;-73
2023/05/18 09:56:59;;;;;;;5.78;1.85;;;14.20;99.90;;;;;;5113973;28;20078;-71
2023/05/18 09:59:25;;;;;;;3.47;1.30;;;14.20;99.10;;;;;;5113921;28;20040;-72
2023/05/18 10:01:55;;;;;;;5.00;1.60;;;14.30;99.40;;;;;;5113968;28;20047;-71
2023/05/18 10:04:21;;;;;;;4.43;1.60;;;14.10;99.90;;;;;;5113849;28;20046;-72
2023/05/18 10:06:51;;;;;;;3.73;1.57;;;14.20;99.90;;;;;;5113953;28;20420;-71
2023/05/18 10:09:16;;;;;;;3.25;1.60;;;14.40;99.50;;;;;;5113926;28;20052;-71
2023/05/18 10:11:45;;;;;;;6.03;1.87;;;14.50;99.80;;;;;;5114003;28;20044;-71
2023/05/18 10:14:10;;;;;;;5.47;1.35;;;14.50;99.20;;;;;;5113787;28;20043;-71
2023/05/18 10:16:36;;;;;;;6.70;1.50;;;14.40;98.80;;;;;;5112836;28;20084;-72
2023/05/18 10:19:07;;;;;;;5.53;1.60;;;14.40;98.20;;;;;;5114197;28;20044;-72
2023/05/18 10:21:35;;;;;;;4.95;1.52;;;14.50;99.40;;;;;;5114277;28;20039;-73
2023/05/18 10:24:04;;;;;;;4.38;1.95;;;14.50;98.60;;;;;;5113757;28;20049;-73
2023/05/18 10:26:37;;;;;;;5.30;2.05;;;14.50;99.10;;;;;;5113741;28;20459;-71
2023/05/18 10:29:03;;;;;;;3.75;1.55;;;14.70;98.70;;;;;;5114170;28;20044;-71
2023/05/18 10:31:29;;;;;;;5.68;1.42;;;14.60;98.70;;;;;;5114082;28;20044;-71
2023/05/18 10:33:57;;;;;;;7.57;1.95;;;14.70;98.80;;;;;;5113431;28;20088;-72
2023/05/18 10:36:27;;;;;;;3.35;1.40;;;14.70;99.10;;;;;;5113623;28;20066;-72
2023/05/18 10:38:55;;;;;;;7.65;1.50;;;14.80;99.00;;;;;;5113741;28;20047;-72
2023/05/18 10:41:21;;;;;;;4.88;1.70;;;14.90;98.20;;;;;;5095642;28;20043;-71
2023/05/18 10:43:48;;;;;;;7.85;2.10;;;15.00;99.00;;;;;;5113641;28;20040;-71
2023/05/18 10:46:15;;;;;;;3.50;1.25;;;15.00;98.50;;;;;;5113929;28;20043;-71
2023/05/18 10:48:44;;;;;;;6.68;1.73;;;15.00;98.30;;;;;;5113422;28;20559;-72
2023/05/18 10:51:11;;;;;;;3.10;1.50;;;14.90;98.20;;;;;;5113521;28;20039;-72
2023/05/18 10:53:38;;;;;;;4.15;2.05;;;15.10;98.40;;;;;;5113563;28;20043;-71
2023/05/18 10:56:04;;;;;;;3.72;1.55;;;15.20;98.80;;;;;;5113472;28;20039;-72
2023/05/18 10:58:30;;;;;;;6.95;2.08;;;15.10;98.20;;;;;;5113270;28;20035;-71
2023/05/18 11:01:01;;;;;;;2.97;1.67;;;15.10;97.90;;;;;;5113541;28;20497;-71
2023/05/18 11:03:28;;;;;;;4.40;1.85;;;15.00;97.30;;;;;;5116077;28;20036;-71
2023/05/18 11:06:08;;;;;;;4.82;1.50;;;15.00;97.70;;;;;;5117118;28;20047;-72
2023/05/18 11:08:47;;;;;;;2.60;1.65;;;14.90;97.80;;;;;;5116949;28;20031;-72
2023/05/18 11:11:14;;;;;;;5.00;1.98;;;14.80;98.00;;;;;;5115847;28;20035;-71
2023/05/18 11:13:48;;;;;;;3.58;1.80;;;15.00;98.60;;;;;;5117403;28;20039;-72
2023/05/18 11:16:15;;;;;;;5.25;1.75;;;15.00;98.30;;;;;;5116900;28;20036;-73
2023/05/18 11:18:44;;;;;;;;;;;15.00;97.50;;;;;;5117383;28;20077;-71
2023/05/18 11:21:19;;;;;;;5.68;1.90;;;15.10;98.90;;;;;;5116835;28;19965;-72
2023/05/18 11:24:14;;;;;;;3.17;1.70;;;15.20;98.30;;;;;;5116876;28;20085;-68
2023/05/18 11:26:41;;;;;;;5.45;1.67;;;15.30;97.80;;;;;;5087294;27;20126;-69
2023/05/18 11:29:22;;;;;;;8.00;2.28;;;15.40;98.10;;;;;;5116697;28;20062;-70
2023/05/18 11:31:53;;;;;;;4.32;1.90;;;15.50;97.50;;;;;;5116042;28;20079;-71
2023/05/18 11:34:40;;;;;;;3.40;1.80;;;15.60;97.80;;;;;;5098651;28;20383;-71
2023/05/18 11:37:08;;;;;;;5.32;1.65;;;15.50;96.50;;;;;;5116604;28;20032;-71
2023/05/18 11:39:34;;;;;;;4.30;1.60;;;15.60;97.90;;;;;;5116546;28;20092;-72
2023/05/18 11:42:01;;;;;;;3.37;1.67;;;15.60;97.00;;;;;;5116451;28;20047;-72
2023/05/18 11:44:27;;;;;;;4.82;1.63;;;15.80;97.90;;;;;;5116502;28;20043;-71
2023/05/18 11:46:55;;;;;;;13.88;3.22;;;15.80;97.60;;;;;;5116966;28;20062;-72
2023/05/18 11:49:26;;;;;;;6.70;1.85;;;15.80;96.80;;;;;;5116261;27;20051;-71
2023/05/18 11:52:19;;;;;;;5.82;1.85;;;15.80;96.70;;;;;;5116293;28;20383;-71
2023/05/18 11:54:46;;;;;;;4.00;1.42;;;15.70;97.20;;;;;;5116192;28;20071;-71
2023/05/18 11:57:13;;;;;;;3.35;1.60;;;15.90;96.00;;;;;;5116626;28;20423;-71
2023/05/18 11:59:47;;;;;;;3.90;1.80;;;15.90;96.30;;;;;;5116471;28;20337;-71
2023/05/18 12:02:19;;;;;;;4.80;1.80;;;16.00;97.30;;;;;;5116330;28;20089;-71
2023/05/18 12:04:51;;;;;;;5.85;1.75;;;16.20;96.90;;;;;;5116017;28;20375;-71
2023/05/18 12:07:18;;;;;;;3.13;1.40;;;16.20;96.10;;;;;;5115924;28;20035;-71
2023/05/18 12:09:45;;;;;;;3.95;1.40;;;16.10;96.50;;;;;;5115974;28;20126;-70
2023/05/18 12:12:15;;;;;;;7.45;2.50;;;16.20;95.90;;;;;;5116238;28;20043;-70
2023/05/18 12:14:42;;;;;;;5.55;1.70;;;16.30;96.70;;;;;;5115738;28;20040;-71
2023/05/18 12:17:09;;;;;;;4.90;1.60;;;16.40;96.80;;;;;;5115853;28;20039;-72
2023/05/18 12:19:40;;;;;;;;;;;16.60;96.40;;;;;;5116124;28;20464;-72
2023/05/18 12:22:07;;;;;;;6.28;1.80;;;16.70;96.30;;;;;;5115701;28;19923;-71
2023/05/18 12:24:33;;;;;;;4.38;1.63;;;17.00;96.70;;;;;;5115529;28;20054;-71
2023/05/18 12:27:03;;;;;;;3.77;1.67;;;17.10;95.20;;;;;;5115311;28;20043;-71
2023/05/18 12:29:29;;;;;;;5.10;1.77;;;17.00;95.60;;;;;;5115569;28;20475;-71
2023/05/18 12:31:55;;;;;;;2.75;1.40;;;16.90;95.60;;;;;;5115545;28;20061;-71
2023/05/18 12:34:21;;;;;;;3.37;1.77;;;16.80;95.90;;;;;;5115088;28;20036;-73
2023/05/18 12:36:53;;;;;;;3.95;1.70;;;16.90;96.60;;;;;;5115398;28;20097;-71
2023/05/18 12:39:20;;;;;;;4.10;1.60;;;16.90;96.00;;;;;;5115422;28;20092;-71
2023/05/18 12:41:46;;;;;;;4.43;1.88;;;17.00;96.50;;;;;;5115565;28;20046;-72
2023/05/18 12:44:12;;;;;;;4.05;1.70;;;17.00;96.00;;;;;;5115166;28;20043;-72
2023/05/18 12:46:38;;;;;;;5.78;1.90;;;17.10;95.90;;;;;;5115256;28;20485;-72
2023/05/18 12:49:05;;;;;;;5.23;1.63;;;17.20;96.00;;;;;;5115182;28;20039;-71
2023/05/18 12:51:35;;;;;;;3.33;1.67;;;17.20;95.90;;;;;;5115133;28;20082;-71
2023/05/18 12:54:05;;;;;;;4.78;1.70;;;17.20;95.50;;;;;;5115154;28;20132;-72
2023/05/18 12:56:58;;;;;;;4.65;1.85;;;17.20;95.70;;;;;;5115165;28;20075;-72